PWSweather.com
Personal Weather Stations
Station Observations
KNCCHINA3
Red Tractor Trail, China Grove, NC 28023

Red Tractor TrailChina Grove, NC 28023

Lat: 35.59751, Lon: -80.60201

Elevation: 800

Station Type: Oregon Scientific WMR 968

http://www.joesweathergarage.com

Latest ConditionsUpdated 2:00:52 AM EDT Sunday, Mar 29, 2015
Currently Today's Max Today's Min Today's Average
Temperature 31.6°F-0.2°C 34.5°F1.4°C 31.6°F-0.2°C 32.9°F0.5°C
Dew Point 7.0°F-13.9°C 7.2°F-13.8°C -0.8°F-18.2°C 5.1°F-14.9°C
Winds 2.4 mph NE3.9 kmh NE 6.7 mph NNE10.8 kmh NNE - 3.4 mph 5.5 kmh
Wind Gusts 5.0 mph8.0 kmh 9.4 mph15.1 kmh - -
Humidity 35% 35% 22% 31%
Pressure 30.33 in1027.1 mb 30.33 in1027.1 mb 30.27 in1025.1 mb -
Hour Temp Dew Point Humidity Winds Wind Gusts Pressure Precip Precip Rate Daily Precip Total
02:00 AM 31.6°F-0.2°C 7.0°F-13.9°C 35% 2.4 mph NE3.9 kmh NE 5.0 mph8.0 kmh 30.33 in1027.1 mb 0.00 in0.0 mm 0.00 in0.0 mm 0.00 in0.0 mm
01:55 AM 31.8°F-0.1°C 6.4°F-14.2°C 34% 2.2 mph NE3.5 kmh NE 5.0 mph8.0 kmh 30.33 in1027.1 mb 0.00 in0.0 mm 0.00 in0.0 mm 0.00 in0.0 mm
01:50 AM 32.0°F0.0°C 6.6°F-14.1°C 34% 3.9 mph NE6.3 kmh NE 6.2 mph10.0 kmh 30.33 in1027.1 mb 0.00 in0.0 mm 0.00 in0.0 mm 0.00 in0.0 mm
01:45 AM 31.8°F-0.1°C 6.4°F-14.2°C 34% 3.9 mph NE6.3 kmh NE 6.2 mph10.0 kmh 30.33 in1027.1 mb 0.00 in0.0 mm 0.00 in0.0 mm 0.00 in0.0 mm
01:40 AM 31.8°F-0.1°C 6.4°F-14.2°C 34% Calm Calm 2.2 mph3.5 kmh 30.30 in1026.1 mb 0.00 in0.0 mm 0.00 in0.0 mm 0.00 in0.0 mm
01:35 AM 32.0°F0.0°C 6.6°F-14.1°C 34% Calm Calm 4.0 mph6.4 kmh 30.30 in1026.1 mb 0.00 in0.0 mm 0.00 in0.0 mm 0.00 in0.0 mm
01:30 AM 32.2°F0.1°C 6.8°F-14.0°C 34% 2.9 mph NE4.7 kmh NE 6.2 mph10.0 kmh 30.30 in1026.1 mb 0.00 in0.0 mm 0.00 in0.0 mm 0.00 in0.0 mm
01:25 AM 32.2°F0.1°C 6.8°F-14.0°C 34% 4.1 mph NNE6.6 kmh NNE 6.2 mph10.0 kmh 30.30 in1026.1 mb 0.00 in0.0 mm 0.00 in0.0 mm 0.00 in0.0 mm
01:20 AM 32.4°F0.2°C 7.0°F-13.9°C 34% 3.5 mph NE5.6 kmh NE 6.2 mph10.0 kmh 30.30 in1026.1 mb 0.00 in0.0 mm 0.00 in0.0 mm 0.00 in0.0 mm
01:15 AM 32.5°F0.3°C 7.1°F-13.8°C 34% 5.1 mph NE8.2 kmh NE 6.2 mph10.0 kmh 30.30 in1026.1 mb 0.00 in0.0 mm 0.00 in0.0 mm 0.00 in0.0 mm
01:10 AM 32.5°F0.3°C 7.1°F-13.8°C 34% 3.0 mph NE4.8 kmh NE 6.2 mph10.0 kmh 30.30 in1026.1 mb 0.00 in0.0 mm 0.00 in0.0 mm 0.00 in0.0 mm
01:05 AM 32.7°F0.4°C 7.2°F-13.8°C 34% 3.1 mph NE5.0 kmh NE 5.8 mph9.3 kmh 30.30 in1026.1 mb 0.00 in0.0 mm 0.00 in0.0 mm 0.00 in0.0 mm
01:00 AM 32.9°F0.5°C 6.7°F-14.1°C 33% 2.8 mph NE4.5 kmh NE 5.8 mph9.3 kmh 30.30 in1026.1 mb 0.00 in0.0 mm 0.00 in0.0 mm 0.00 in0.0 mm
12:55 AM 33.1°F0.6°C 6.9°F-13.9°C 33% 3.4 mph NNE5.5 kmh NNE 5.8 mph9.3 kmh 30.30 in1026.1 mb 0.00 in0.0 mm 0.00 in0.0 mm 0.00 in0.0 mm
12:50 AM 33.1°F0.6°C 6.9°F-13.9°C 33% 2.3 mph NE3.7 kmh NE 5.4 mph8.7 kmh 30.30 in1026.1 mb 0.00 in0.0 mm 0.00 in0.0 mm 0.00 in0.0 mm
12:45 AM 33.3°F0.7°C 7.0°F-13.9°C 33% 3.3 mph NE5.3 kmh NE 6.8 mph10.9 kmh 30.30 in1026.1 mb 0.00 in0.0 mm 0.00 in0.0 mm 0.00 in0.0 mm
12:38 AM 33.6°F0.9°C 5.8°F-14.6°C 31% 5.0 mph NNE8.0 kmh NNE 9.4 mph15.1 kmh 30.27 in1025.1 mb 0.00 in0.0 mm 0.00 in0.0 mm 0.00 in0.0 mm
12:33 AM 33.8°F1.0°C 5.2°F-14.9°C 30% 5.3 mph NNE8.5 kmh NNE 9.4 mph15.1 kmh 30.27 in1025.1 mb 0.00 in0.0 mm 0.00 in0.0 mm 0.00 in0.0 mm
12:28 AM 33.8°F1.0°C 3.5°F-15.8°C 28% 6.7 mph NNE10.8 kmh NNE 8.6 mph13.8 kmh 30.27 in1025.1 mb 0.00 in0.0 mm 0.00 in0.0 mm 0.00 in0.0 mm
12:23 AM 34.0°F1.1°C 1.0°F-17.2°C 24% 5.7 mph NNE9.2 kmh NNE 7.2 mph11.6 kmh 30.27 in1025.1 mb 0.00 in0.0 mm 0.00 in0.0 mm 0.00 in0.0 mm
12:18 AM 34.0°F1.1°C 1.0°F-17.2°C 24% 4.4 mph NNE7.1 kmh NNE 6.2 mph10.0 kmh 30.27 in1025.1 mb 0.00 in0.0 mm 0.00 in0.0 mm 0.00 in0.0 mm
12:12 AM 34.2°F1.2°C -0.8°F-18.2°C 22% 3.7 mph NE6.0 kmh NE 5.0 mph8.0 kmh 30.27 in1025.1 mb 0.00 in0.0 mm 0.00 in0.0 mm 0.00 in0.0 mm
12:07 AM 34.3°F1.3°C -0.7°F-18.2°C 22% 2.4 mph NE3.9 kmh NE 5.0 mph8.0 kmh 30.27 in1025.1 mb 0.00 in0.0 mm 0.00 in0.0 mm 0.00 in0.0 mm
12:02 AM 34.5°F1.4°C -0.5°F-18.1°C 22% 2.5 mph NE4.0 kmh NE 7.2 mph11.6 kmh 30.27 in1025.1 mb 0.00 in0.0 mm 0.00 in0.0 mm 0.00 in0.0 mm